createdAt,value
2023-07-22T00:00:37.094Z,100959.00
2023-07-22T00:04:39.936Z,100952.97
2023-07-22T00:08:42.856Z,100941.19
2023-07-22T00:12:45.808Z,100943.13
2023-07-22T00:16:49.961Z,100940.94
2023-07-22T00:20:52.821Z,100943.13
2023-07-22T00:24:55.659Z,100948.53
2023-07-22T00:28:58.444Z,100943.31
2023-07-22T00:33:03.444Z,100942.50
2023-07-22T00:37:06.407Z,100933.97
2023-07-22T00:41:09.579Z,100934.56
2023-07-22T00:45:13.046Z,100938.63
2023-07-22T00:49:18.896Z,100931.81
2023-07-22T00:53:21.820Z,100929.59
2023-07-22T00:57:25.838Z,100932.81
2023-07-22T01:01:28.803Z,100925.91
2023-07-22T01:05:33.356Z,100929.44
2023-07-22T01:09:37.922Z,100931.09
2023-07-22T01:13:40.823Z,100931.66
2023-07-22T01:17:43.760Z,100933.56
2023-07-22T01:21:49.385Z,100930.00
2023-07-22T01:25:54.700Z,100925.38
2023-07-22T01:29:57.559Z,100921.53
2023-07-22T01:34:00.892Z,100920.97
2023-07-22T01:38:03.825Z,100912.22
2023-07-22T01:42:08.346Z,100915.22
2023-07-22T01:46:11.446Z,100917.63
2023-07-22T01:50:14.274Z,100921.44
2023-07-22T01:54:17.080Z,100926.03
2023-07-22T01:58:21.514Z,100922.47
2023-07-22T02:02:24.449Z,100918.09
2023-07-22T02:06:30.111Z,100924.06
2023-07-22T02:10:33.587Z,100927.31
2023-07-22T02:14:38.447Z,100928.91
2023-07-22T02:18:41.907Z,100928.34
2023-07-22T02:22:44.768Z,100921.22
2023-07-22T02:26:47.611Z,100921.50
2023-07-22T02:30:53.392Z,100921.50
2023-07-22T02:34:56.658Z,100925.31
2023-07-22T02:38:59.510Z,100916.03
2023-07-22T02:43:02.391Z,100923.41
2023-07-22T02:47:06.615Z,100913.53
2023-07-22T02:51:11.638Z,100929.38
2023-07-22T02:55:19.679Z,100923.91
2023-07-22T02:59:22.737Z,100921.91
2023-07-22T03:03:27.827Z,100925.44
2023-07-22T03:07:30.706Z,100928.16
2023-07-22T03:11:33.580Z,100924.63
2023-07-22T03:15:36.387Z,100922.38
2023-07-22T03:19:40.621Z,100923.72
2023-07-22T03:23:43.421Z,100916.63
2023-07-22T03:27:47.076Z,100921.47
2023-07-22T03:31:50.270Z,100921.44
2023-07-22T03:35:54.560Z,100918.38
2023-07-22T03:39:57.482Z,100923.28
2023-07-22T03:44:00.297Z,100924.09
2023-07-22T03:48:03.218Z,100930.91
2023-07-22T03:52:09.293Z,100922.13
2023-07-22T03:56:12.207Z,100933.03
2023-07-22T04:00:15.417Z,100932.22
2023-07-22T04:04:18.516Z,100932.81
2023-07-22T04:08:22.754Z,100934.94
2023-07-22T04:12:25.643Z,100932.81
2023-07-22T04:16:28.805Z,100933.13
2023-07-22T04:20:31.903Z,100936.19
2023-07-22T04:24:36.177Z,100935.41
2023-07-22T04:28:39.440Z,100930.84
2023-07-22T04:32:42.286Z,100941.00
2023-07-22T04:36:45.265Z,100930.19
2023-07-22T04:40:49.534Z,100932.22
2023-07-22T04:44:52.357Z,100935.31
2023-07-22T04:48:56.022Z,100929.38
2023-07-22T04:52:58.786Z,100941.75
2023-07-22T04:57:04.100Z,100922.69
2023-07-22T05:01:07.077Z,100939.41
2023-07-22T05:05:10.664Z,100942.50
2023-07-22T05:09:13.483Z,100925.88
2023-07-22T05:13:17.972Z,100929.72
2023-07-22T05:17:20.906Z,100935.56
2023-07-22T05:21:23.737Z,100935.09
2023-07-22T05:25:26.533Z,100940.38
2023-07-22T05:29:30.662Z,100939.88
2023-07-22T05:33:33.506Z,100950.63
2023-07-22T05:37:36.332Z,100940.59
2023-07-22T05:41:41.435Z,100946.38
2023-07-22T05:45:46.283Z,100949.41
2023-07-22T05:49:49.111Z,100938.00
2023-07-22T05:53:51.916Z,100942.19
2023-07-22T05:57:54.743Z,100943.34
2023-07-22T06:01:59.142Z,100942.28
2023-07-22T06:06:01.948Z,100950.84
2023-07-22T06:10:07.722Z,100944.31
2023-07-22T06:14:11.043Z,100956.44
2023-07-22T06:18:15.262Z,100947.44
2023-07-22T06:22:18.017Z,100935.94
2023-07-22T06:26:22.583Z,100936.53
2023-07-22T06:30:26.603Z,100939.59
2023-07-22T06:34:30.780Z,100946.22
2023-07-22T06:38:33.856Z,100935.22
2023-07-22T06:42:36.870Z,100930.28
2023-07-22T06:46:39.856Z,100937.88
2023-07-22T06:50:49.331Z,100950.44
2023-07-22T06:54:52.262Z,100943.50
2023-07-22T06:58:55.032Z,100945.59
2023-07-22T07:02:57.891Z,100943.97
2023-07-22T07:07:02.160Z,100942.03
2023-07-22T07:11:04.963Z,100930.56
2023-07-22T07:15:08.913Z,100928.78
2023-07-22T07:19:12.041Z,100946.09
2023-07-22T07:23:17.276Z,100946.72
2023-07-22T07:27:20.181Z,100932.97
2023-07-22T07:31:23.054Z,100929.41
2023-07-22T07:35:25.961Z,100931.75
2023-07-22T07:39:30.305Z,100929.97
2023-07-22T07:43:33.291Z,100923.44
2023-07-22T07:47:36.254Z,100926.00
2023-07-22T07:51:39.010Z,100921.41
2023-07-22T07:55:43.269Z,100916.44
2023-07-22T07:59:46.068Z,100917.94
2023-07-22T08:03:49.020Z,100914.69
2023-07-22T08:07:51.862Z,100924.53
2023-07-22T08:11:56.072Z,100917.84
2023-07-22T08:15:59.481Z,100919.66
2023-07-22T08:20:02.372Z,100928.00
2023-07-22T08:24:05.854Z,100926.53
2023-07-22T08:28:10.109Z,100926.28
2023-07-22T08:32:12.896Z,100928.66
2023-07-22T08:36:15.758Z,100925.22
2023-07-22T08:40:19.336Z,100917.94
2023-07-22T08:44:25.959Z,100924.19
2023-07-22T08:48:31.418Z,100924.34
2023-07-22T08:52:35.676Z,100921.53
2023-07-22T08:56:39.146Z,100926.06
2023-07-22T09:00:44.423Z,100919.19
2023-07-22T09:04:47.410Z,100911.63
2023-07-22T09:08:50.461Z,100912.75
2023-07-22T09:12:53.983Z,100902.56
2023-07-22T09:16:59.868Z,100914.38
2023-07-22T09:21:02.721Z,100913.81
2023-07-22T09:25:16.890Z,100927.84
2023-07-22T09:29:20.354Z,100920.09
2023-07-22T09:33:26.545Z,100919.09
2023-07-22T09:37:38.482Z,100913.41
2023-07-22T09:41:44.228Z,100916.19
2023-07-22T09:45:49.762Z,100921.41
2023-07-22T09:49:53.984Z,100914.84
2023-07-22T09:54:03.023Z,100905.75
2023-07-22T09:58:07.221Z,100903.50
2023-07-22T10:02:13.399Z,100902.56
2023-07-22T10:06:18.331Z,100904.63
2023-07-22T10:10:23.496Z,100891.81
2023-07-22T10:14:27.251Z,100900.22
2023-07-22T10:18:32.811Z,100895.81
2023-07-22T10:22:39.444Z,100889.75
2023-07-22T10:26:47.514Z,100882.84
2023-07-22T10:30:50.936Z,100891.38
2023-07-22T10:34:53.777Z,100883.59
2023-07-22T10:39:03.269Z,100882.13
2023-07-22T10:43:08.870Z,100883.94
2023-07-22T10:47:11.848Z,100887.50
2023-07-22T10:51:16.143Z,100890.13
2023-07-22T10:55:21.349Z,100886.13
2023-07-22T10:59:29.170Z,100893.91
2023-07-22T11:03:31.971Z,100885.50
2023-07-22T11:07:36.599Z,100891.31
2023-07-22T11:11:46.010Z,100886.38
2023-07-22T11:15:50.539Z,100879.03
2023-07-22T11:19:53.565Z,100871.75
2023-07-22T11:23:56.421Z,100858.97
2023-07-22T11:28:01.116Z,100854.75
2023-07-22T11:32:06.059Z,100857.41
2023-07-22T11:36:09.779Z,100851.53
2023-07-22T11:40:14.265Z,100842.28
2023-07-22T11:44:20.849Z,100843.34
2023-07-22T11:48:23.817Z,100821.47
2023-07-22T11:52:26.694Z,100839.91
2023-07-22T11:56:30.603Z,100841.09
2023-07-22T12:00:35.444Z,100833.94
2023-07-22T12:04:40.095Z,100835.38
2023-07-22T12:08:47.743Z,100834.59
2023-07-22T12:12:51.097Z,100825.25
2023-07-22T12:16:59.301Z,100821.47
2023-07-22T12:21:05.835Z,100830.28
2023-07-22T12:25:09.456Z,100817.88
2023-07-22T12:29:12.351Z,100816.09
2023-07-22T12:33:16.669Z,100817.28
2023-07-22T12:37:19.731Z,100817.25
2023-07-22T12:41:22.665Z,100805.69
2023-07-22T12:45:25.823Z,100807.63
2023-07-22T12:49:30.065Z,100798.28
2023-07-22T12:53:33.176Z,100801.69
2023-07-22T12:57:36.506Z,100807.88
2023-07-22T13:01:42.276Z,100805.75
2023-07-22T13:05:49.489Z,100822.03
2023-07-22T13:09:54.413Z,100812.81
2023-07-22T13:13:57.449Z,100807.34
2023-07-22T13:18:00.345Z,100819.03
2023-07-22T13:22:05.261Z,100806.47
2023-07-22T13:26:08.066Z,100802.72
2023-07-22T13:30:11.498Z,100796.31
2023-07-22T13:34:14.367Z,100794.47
2023-07-22T13:38:18.701Z,100800.84
2023-07-22T13:42:22.026Z,100807.31
2023-07-22T13:46:25.164Z,100798.00
2023-07-22T13:50:28.182Z,100798.00
2023-07-22T13:54:32.357Z,100782.81
2023-07-22T13:58:35.219Z,100781.88
2023-07-22T14:02:39.051Z,100779.19
2023-07-22T14:06:41.905Z,100772.31
2023-07-22T14:10:46.193Z,100784.63
2023-07-22T14:14:48.956Z,100785.81
2023-07-22T14:18:52.915Z,100785.41
2023-07-22T14:22:55.922Z,100786.31
2023-07-22T14:27:00.274Z,100799.00
2023-07-22T14:31:03.219Z,100821.25
2023-07-22T14:35:07.413Z,100816.63
2023-07-22T14:39:10.397Z,100810.66
2023-07-22T14:43:14.643Z,100815.94
2023-07-22T14:47:17.434Z,100809.97
2023-07-22T14:51:20.386Z,100801.19
2023-07-22T14:55:23.629Z,100790.31
2023-07-22T14:59:28.358Z,100797.47
2023-07-22T15:03:31.344Z,100784.16
2023-07-22T15:07:34.280Z,100777.56
2023-07-22T15:11:37.998Z,100769.59
2023-07-22T15:15:42.223Z,100776.59
2023-07-22T15:19:45.059Z,100770.25
2023-07-22T15:23:47.871Z,100776.59
2023-07-22T15:27:50.714Z,100776.72
2023-07-22T15:31:54.897Z,100783.88
2023-07-22T15:35:57.739Z,100789.50
2023-07-22T15:40:00.538Z,100789.50
2023-07-22T15:44:03.467Z,100786.00
2023-07-22T15:48:07.962Z,100782.84
2023-07-22T15:52:10.901Z,100771.69
2023-07-22T15:56:13.892Z,100770.25
2023-07-22T16:00:16.983Z,100780.91
2023-07-22T16:04:21.585Z,100777.53
2023-07-22T16:08:25.900Z,100777.22
2023-07-22T16:12:29.146Z,100773.31
2023-07-22T16:16:32.028Z,100758.69
2023-07-22T16:20:36.273Z,100768.06
2023-07-22T16:24:39.635Z,100770.81
2023-07-22T16:28:42.532Z,100769.06
2023-07-22T16:32:45.452Z,100763.84
2023-07-22T16:36:49.859Z,100756.28
2023-07-22T16:40:53.639Z,100757.88
2023-07-22T16:44:56.835Z,100767.88
2023-07-22T16:49:02.722Z,100760.00
2023-07-22T16:53:06.893Z,100750.16
2023-07-22T16:57:09.733Z,100752.88
2023-07-22T17:01:12.778Z,100755.94
2023-07-22T17:05:15.750Z,100743.50
2023-07-22T17:09:21.251Z,100748.72
2023-07-22T17:13:24.072Z,100734.84
2023-07-22T17:17:26.961Z,100733.16
2023-07-22T17:21:30.058Z,100738.81
2023-07-22T17:25:34.453Z,100750.13
2023-07-22T17:29:38.610Z,100745.72
2023-07-22T17:33:42.408Z,100736.94
2023-07-22T17:37:45.392Z,100734.78
2023-07-22T17:41:49.565Z,100749.47
2023-07-22T17:45:52.394Z,100732.19
2023-07-22T17:49:55.213Z,100727.56
2023-07-22T17:53:58.117Z,100732.41
2023-07-22T17:58:02.421Z,100719.13
2023-07-22T18:02:06.306Z,100722.97
2023-07-22T18:06:09.101Z,100714.69
2023-07-22T18:10:12.340Z,100713.06
2023-07-22T18:14:16.649Z,100714.69
2023-07-22T18:18:19.757Z,100710.00
2023-07-22T18:22:22.556Z,100707.25
2023-07-22T18:26:26.016Z,100706.31
2023-07-22T18:30:30.327Z,100711.81
2023-07-22T18:34:33.156Z,100704.69
2023-07-22T18:38:36.364Z,100707.44
2023-07-22T18:42:39.340Z,100711.81
2023-07-22T18:46:43.552Z,100711.31
2023-07-22T18:50:46.380Z,100718.56
2023-07-22T18:54:50.020Z,100715.03
2023-07-22T18:58:52.839Z,100715.13
2023-07-22T19:02:57.545Z,100725.63
2023-07-22T19:07:00.354Z,100721.00
2023-07-22T19:11:06.336Z,100715.06
2023-07-22T19:15:09.905Z,100717.38
2023-07-22T19:19:14.149Z,100717.81
2023-07-22T19:23:17.000Z,100718.16
2023-07-22T19:27:19.814Z,100723.16
2023-07-22T19:31:22.787Z,100718.84
2023-07-22T19:35:27.048Z,100721.34
2023-07-22T19:39:30.064Z,100715.94
2023-07-22T19:43:33.007Z,100726.50
2023-07-22T19:47:35.858Z,100724.91
2023-07-22T19:51:40.064Z,100726.09
2023-07-22T19:55:42.921Z,100730.28
2023-07-22T19:59:45.734Z,100734.88
2023-07-22T20:03:48.666Z,100733.34
2023-07-22T20:07:52.903Z,100737.59
2023-07-22T20:11:55.826Z,100744.88
2023-07-22T20:15:58.694Z,100746.97
2023-07-22T20:20:01.549Z,100755.91
2023-07-22T20:24:06.167Z,100761.00
2023-07-22T20:28:09.368Z,100757.78
2023-07-22T20:32:26.885Z,100755.91
2023-07-22T20:36:31.405Z,100755.41
2023-07-22T20:40:35.584Z,100759.56
2023-07-22T20:44:38.430Z,100763.75
2023-07-22T20:48:42.409Z,100753.06
2023-07-22T20:52:45.399Z,100758.56
2023-07-22T20:56:49.961Z,100758.84
2023-07-22T21:00:53.958Z,100767.38
2023-07-22T21:04:56.850Z,100762.72
2023-07-22T21:08:59.761Z,100756.44
2023-07-22T21:13:04.454Z,100752.88
2023-07-22T21:17:07.472Z,100748.75
2023-07-22T21:21:10.501Z,100751.47
2023-07-22T21:25:14.628Z,100746.25
2023-07-22T21:29:18.868Z,100735.56
2023-07-22T21:33:22.007Z,100737.22
2023-07-22T21:37:24.930Z,100734.75
2023-07-22T21:41:28.059Z,100729.78
2023-07-22T21:45:32.553Z,100725.72
2023-07-22T21:49:35.351Z,100720.22
2023-07-22T21:53:38.274Z,100722.13
2023-07-22T21:57:41.484Z,100720.19
2023-07-22T22:01:45.850Z,100717.47
2023-07-22T22:05:49.024Z,100717.47
2023-07-22T22:09:51.807Z,100709.50
2023-07-22T22:13:54.626Z,100699.00
2023-07-22T22:18:00.421Z,100700.66
2023-07-22T22:22:03.837Z,100692.44
2023-07-22T22:26:06.701Z,100679.84
2023-07-22T22:30:10.223Z,100665.34
2023-07-22T22:34:14.368Z,100667.56
2023-07-22T22:38:17.293Z,100660.69
2023-07-22T22:42:20.142Z,100653.03
2023-07-22T22:46:23.035Z,100651.91
2023-07-22T22:50:28.066Z,100646.94
2023-07-22T22:54:30.934Z,100651.06
2023-07-22T22:58:34.332Z,100652.44
2023-07-22T23:02:37.335Z,100643.91
2023-07-22T23:06:41.555Z,100644.72
2023-07-22T23:10:47.843Z,100656.25
2023-07-22T23:14:51.573Z,100652.38
2023-07-22T23:18:54.430Z,100647.19
2023-07-22T23:22:58.659Z,100639.78
2023-07-22T23:27:01.485Z,100648.03
2023-07-22T23:31:04.870Z,100648.66
2023-07-22T23:35:10.187Z,100642.88
2023-07-22T23:39:14.982Z,100639.81
2023-07-22T23:43:18.431Z,100635.44
2023-07-22T23:47:21.198Z,100635.97
2023-07-22T23:51:24.231Z,100621.16
2023-07-22T23:55:28.798Z,100613.47
2023-07-22T23:59:31.621Z,100605.22
